Tim Quigg — WDB6570 — position and weather

sailwx.info

Track history (hours):
 
Tides and Currents Weather Stations Pressure Air Temp Water Temp Dewpoint Dewpoint Depression Visibility Wind Speed Wind Dir Waves Ship Positions

Tim Quigg

Owner: Harley Marine Services, Inc, Seattle, WA. More information available from US FCC via Universal Licensing System and Coast Guard Vessel Documentation Center.

Last reported at 2017-Apr-30 06:55 UTC. Time now 2017-Apr-30 07:11 UTC.
Position N 33°45' W 118°13'.

Type: Tug. MMSI: 366926740.

Date/timePositionNaut miles runAvg speedWind from/ knotsBaromVisibWave heightAir tempDewpointWater temp
2017-Apr-30 06:55N 33°45' W 118°13'1 3.3
2017-Apr-30 06:28N 33°46' W 118°14'3 6.4
2017-Apr-30 06:00N 33°43' W 118°14'2 3.1
2017-Apr-30 05:30N 33°44' W 118°16'0 0.0
2017-Apr-30 04:49N 33°44' W 118°16'1 3.1
2017-Apr-30 04:29N 33°43' W 118°15'2 2.1
2017-Apr-30 03:43N 33°43' W 118°13'2 8.5
2017-Apr-30 03:31N 33°43' W 118°15'1 2.3
2017-Apr-30 03:00N 33°44' W 118°16'0 0.0
2017-Apr-30 02:30N 33°44' W 118°16'0 0.0
2017-Apr-30 02:00N 33°44' W 118°16'0 0.0
2017-Apr-30 01:30N 33°44' W 118°16'0 0.4
2017-Apr-30 01:00N 33°44' W 118°16'2 4.0
2017-Apr-30 00:30N 33°46' W 118°16'0 0.5
2017-Apr-30 00:01N 33°46' W 118°16'3 3.7
2017-Apr-29 23:16N 33°43' W 118°16'3 0.3
2017-Apr-29 10:52N 33°46' W 118°13'2 1.8
2017-Apr-29 09:44N 33°44' W 118°12'3 3.5
2017-Apr-29 08:47N 33°43' W 118°15'1 4.2
2017-Apr-29 08:30N 33°44' W 118°16'0 0.0
2017-Apr-29 08:00N 33°44' W 118°16'0 0.7
2017-Apr-29 07:30N 33°43' W 118°16'2 4.6
2017-Apr-29 06:59N 33°46' W 118°16'1 2.6
2017-Apr-29 06:30N 33°45' W 118°16'1 2.2
2017-Apr-29 06:00N 33°44' W 118°16'2 4.8
2017-Apr-29 05:30N 33°45' W 118°13'1 2.5
2017-Apr-29 05:00N 33°46' W 118°13'0 0.1
2017-Apr-29 04:30N 33°46' W 118°13'2 3.1
2017-Apr-29 04:00N 33°45' W 118°13'2 4.8
2017-Apr-29 03:30N 33°44' W 118°16'0 0.0
2017-Apr-29 03:00N 33°44' W 118°16'0 0.0
2017-Apr-29 02:30N 33°44' W 118°16'0 0.0
2017-Apr-29 02:00N 33°44' W 118°16'0 0.0
2017-Apr-29 01:30N 33°44' W 118°16'1 2.0
2017-Apr-29 01:00N 33°44' W 118°17'2 3.4
2017-Apr-29 00:30N 33°46' W 118°15'0 0.4
2017-Apr-29 00:00N 33°46' W 118°16'0 0.0
2017-Apr-28 23:30N 33°46' W 118°16'1 1.8
2017-Apr-28 23:00N 33°45' W 118°16'1 1.8
2017-Apr-28 22:30N 33°44' W 118°17'2 4.4
2017-Apr-28 22:00N 33°43' W 118°15'1 2.8
2017-Apr-28 21:30N 33°44' W 118°16'0 0.0
2017-Apr-28 21:00N 33°44' W 118°16'0 0.0
2017-Apr-28 20:30N 33°44' W 118°16'0 0.0
2017-Apr-28 20:00N 33°44' W 118°16'0 0.0
2017-Apr-28 19:30N 33°44' W 118°16'0 0.0
2017-Apr-28 19:00N 33°44' W 118°16'0 0.0
2017-Apr-28 18:30N 33°44' W 118°16'0 0.0
2017-Apr-28 18:01N 33°44' W 118°16'0 0.0
2017-Apr-28 17:26N 33°44' W 118°16'0 0.1
2017-Apr-28 16:59N 33°44' W 118°16'1 1.4
2017-Apr-28 16:29N 33°44' W 118°16'0 0.0
2017-Apr-28 15:59N 33°44' W 118°16'0 0.0
2017-Apr-28 15:28N 33°44' W 118°16'0 0.2
2017-Apr-28 15:00N 33°44' W 118°17'0 0.0
2017-Apr-28 14:18N 33°44' W 118°17'2 1.3
2017-Apr-28 12:57N 33°45' W 118°16'2 3.2
2017-Apr-28 12:28N 33°44' W 118°16'1 1.1
2017-Apr-28 11:24N 33°43' W 118°16'2 2.7
2017-Apr-28 10:50N 33°44' W 118°17'1 1.1
2017-Apr-28 10:08N 33°45' W 118°16'1 5.8
2017-Apr-28 10:00N 33°44' W 118°17'1 1.7
2017-Apr-28 09:30N 33°44' W 118°16'2 4.8
2017-Apr-28 09:00N 33°44' W 118°13'1 2.2
2017-Apr-28 08:30N 33°45' W 118°13'0 0.4
2017-Apr-28 08:00N 33°46' W 118°13'0 0.0
2017-Apr-28 07:30N 33°46' W 118°13'2 4.8
2017-Apr-28 07:00N 33°43' W 118°14'2 3.1
2017-Apr-28 06:30N 33°44' W 118°16'0 0.0
2017-Apr-28 05:57N 33°44' W 118°16'0 0.0
2017-Apr-28 05:26N 33°44' W 118°16'0 0.0
2017-Apr-28 05:00N 33°44' W 118°16'0 0.0
2017-Apr-28 04:25N 33°44' W 118°16'1 3.0
2017-Apr-28 03:59N 33°43' W 118°15'1 1.9
2017-Apr-28 03:17N 33°44' W 118°13'1 3.9
2017-Apr-28 03:00N 33°43' W 118°14'1 2.8
2017-Apr-28 02:30N 33°44' W 118°16'0 0.0
2017-Apr-28 02:00N 33°44' W 118°16'0 0.0
2017-Apr-28 01:30N 33°44' W 118°16'0 0.0
2017-Apr-28 01:00N 33°44' W 118°16'0 0.0
2017-Apr-28 00:30N 33°44' W 118°16'0 0.0
2017-Apr-27 23:54N 33°44' W 118°16'1 2.3
2017-Apr-27 23:30N 33°43' W 118°16'3 3.8
2017-Apr-27 22:40N 33°45' W 118°13'1 1.0
2017-Apr-27 21:42N 33°44' W 118°12'0 0.0
2017-Apr-27 20:35N 33°45' W 118°12'0 2.4
2017-Apr-27 20:27N 33°44' W 118°12'3 6.0
2017-Apr-27 19:58N 33°44' W 118°16'0 0.0
2017-Apr-27 06:52N 33°44' W 118°16'0 0.0
2017-Apr-27 06:30N 33°44' W 118°16'0 0.0
2017-Apr-27 06:00N 33°44' W 118°16'0 0.0
2017-Apr-27 05:30N 33°44' W 118°16'0 0.0
2017-Apr-27 05:00N 33°44' W 118°16'0 0.0
2017-Apr-27 04:30N 33°44' W 118°16'2 3.7
2017-Apr-27 04:00N 33°43' W 118°13'2 2.6
2017-Apr-27 03:20N 33°45' W 118°12'1 2.0
2017-Apr-27 03:00N 33°46' W 118°13'2 3.9
2017-Apr-27 02:30N 33°44' W 118°12'1 1.9
2017-Apr-27 02:00N 33°44' W 118°10'2 3.9
2017-Apr-27 01:29N 33°45' W 118°12'0 0.8
2017-Apr-27 01:00N 33°45' W 118°13'0 0.0
2017-Apr-27 00:30N 33°45' W 118°13'0 0.0
2017-Apr-27 00:00N 33°45' W 118°13'0 0.0
2017-Apr-26 23:30N 33°45' W 118°13'0 0.0
2017-Apr-26 23:00N 33°45' W 118°13'3 6.3
2017-Apr-26 22:30N 33°44' W 118°09'3 6.6
2017-Apr-26 22:00N 33°44' W 118°06'1 2.5
2017-Apr-26 21:30N 33°44' W 118°07'4 8.8
2017-Apr-26 21:00N 33°44' W 118°12'3 5.8
2017-Apr-26 20:30N 33°44' W 118°16'0 0.0
2017-Apr-26 20:00N 33°44' W 118°16'0 0.0
2017-Apr-26 19:30N 33°44' W 118°16'0 0.0
2017-Apr-26 19:00N 33°44' W 118°16'0 0.0
2017-Apr-26 18:30N 33°44' W 118°16'0 0.0
2017-Apr-26 17:56N 33°44' W 118°16'0 0.0
2017-Apr-26 17:31N 33°44' W 118°16'3 3.3
2017-Apr-26 16:39N 33°46' W 118°13'1 3.9
2017-Apr-26 16:30N 33°45' W 118°13'0 0.1
2017-Apr-26 13:02N 33°45' W 118°12'0 0.0
2017-Apr-26 12:59N 33°45' W 118°12'0 0.0
2017-Apr-26 12:16N 33°45' W 118°12'0 0.6
2017-Apr-26 11:48N 33°45' W 118°12'1 3.8
2017-Apr-26 11:30N 33°46' W 118°13'0 0.0
2017-Apr-26 09:43N 33°46' W 118°13'2 8.7
2017-Apr-26 09:30N 33°44' W 118°14'2 4.9
2017-Apr-26 09:00N 33°46' W 118°15'1 0.4
2017-Apr-26 07:09N 33°45' W 118°16'2 7.9
2017-Apr-26 06:56N 33°43' W 118°16'1 1.2
2017-Apr-26 06:24N 33°44' W 118°16'0 0.0
2017-Apr-26 05:56N 33°44' W 118°16'0 0.0
2017-Apr-26 05:27N 33°44' W 118°16'0 0.0
2017-Apr-26 05:00N 33°44' W 118°16'0 0.0
2017-Apr-26 04:30N 33°44' W 118°16'2 0.6
2017-Apr-26 01:17N 33°46' W 118°16'0 0.0
2017-Apr-26 01:00N 33°46' W 118°16'2 4.6
2017-Apr-26 00:30N 33°44' W 118°16'2 3.2
2017-Apr-26 00:00N 33°45' W 118°16'1 1.3
2017-Apr-25 23:30N 33°46' W 118°15'0 0.2
2017-Apr-25 23:00N 33°46' W 118°16'2 3.2
2017-Apr-25 22:30N 33°44' W 118°17'1 1.5
2017-Apr-25 22:00N 33°44' W 118°16'0 0.2
2017-Apr-25 21:30N 33°44' W 118°16'0 0.9
2017-Apr-25 21:01N 33°44' W 118°15'0 0.7
2017-Apr-25 20:30N 33°44' W 118°16'1 2.5
2017-Apr-25 20:00N 33°43' W 118°15'1 2.8
2017-Apr-25 19:30N 33°44' W 118°16'0 0.0
2017-Apr-25 19:00N 33°44' W 118°16'0 0.0
2017-Apr-25 18:28N 33°44' W 118°16'0 0.0
2017-Apr-25 15:56N 33°44' W 118°16'0 0.3
2017-Apr-25 15:29N 33°44' W 118°16'2 2.6
2017-Apr-25 14:42N 33°42' W 118°14'1 5.2
2017-Apr-25 14:28N 33°43' W 118°15'3 2.6
2017-Apr-25 13:28N 33°45' W 118°16'2 3.8
2017-Apr-25 13:00N 33°44' W 118°16'0 0.1
2017-Apr-25 12:26N 33°44' W 118°16'0 0.1
2017-Apr-25 09:52N 33°44' W 118°16'3 0.5
2017-Apr-25 03:39N 33°46' W 118°13'0 2.8
2017-Apr-25 03:30N 33°46' W 118°13'3 0.1
2017-Apr-24 06:22N 33°44' W 118°16'0 0.0
2017-Apr-24 05:58N 33°44' W 118°16'0 0.0
2017-Apr-24 05:28N 33°44' W 118°16'1 0.5
2017-Apr-24 03:03N 33°43' W 118°15'3 7.8
2017-Apr-24 02:43N 33°44' W 118°12'3 6.4
2017-Apr-24 02:17N 33°44' W 118°09'1 1.4
2017-Apr-24 01:24N 33°44' W 118°10'3 7.0
2017-Apr-24 01:00N 33°43' W 118°13'3 5.6
2017-Apr-24 00:29N 33°44' W 118°17'2 3.9
2017-Apr-23 23:58N 33°46' W 118°16'0 0.4
2017-Apr-23 23:30N 33°46' W 118°16'2 4.1
2017-Apr-23 23:00N 33°44' W 118°16'1 1.1
2017-Apr-23 22:29N 33°44' W 118°16'0 0.0
2017-Apr-23 22:00N 33°44' W 118°16'0 0.0
2017-Apr-23 21:30N 33°44' W 118°16'0 0.0
2017-Apr-23 20:51N 33°44' W 118°16'0 0.1
2017-Apr-23 20:30N 33°44' W 118°16'0 0.1
2017-Apr-23 20:00N 33°44' W 118°16'0 0.0
2017-Apr-23 19:28N 33°44' W 118°16'0 0.0
2017-Apr-23 19:00N 33°44' W 118°16'0 0.0
2017-Apr-23 18:30N 33°44' W 118°16'0 0.0
2017-Apr-23 17:35N 33°44' W 118°16'0 0.0
2017-Apr-23 17:22N 33°44' W 118°16'0 0.0
2017-Apr-23 17:00N 33°44' W 118°16'0 0.0
2017-Apr-23 16:30N 33°44' W 118°16'0 0.0
2017-Apr-23 16:00N 33°44' W 118°16'0 0.0
2017-Apr-23 15:30N 33°44' W 118°16'4 7.6
2017-Apr-23 14:59N 33°44' W 118°11'1 1.3
2017-Apr-23 14:00N 33°44' W 118°12'0 0.3
2017-Apr-23 13:30N 33°44' W 118°13'1 2.4
2017-Apr-23 13:00N 33°45' W 118°13'1 1.8
2017-Apr-23 12:29N 33°45' W 118°14'1 1.6
2017-Apr-23 11:57N 33°45' W 118°13'0 0.0
2017-Apr-23 11:30N 33°45' W 118°13'0 0.0
2017-Apr-23 11:00N 33°45' W 118°13'0 0.0
2017-Apr-23 10:30N 33°45' W 118°13'0 0.0
2017-Apr-23 09:54N 33°45' W 118°13'0 0.1
2017-Apr-23 09:30N 33°45' W 118°13'1 2.7
2017-Apr-23 09:00N 33°44' W 118°12'0 0.1
2017-Apr-23 08:30N 33°44' W 118°12'3 6.1
2017-Apr-23 08:00N 33°43' W 118°16'3 5.6
2017-Apr-23 07:30N 33°46' W 118°16'2 3.0
2017-Apr-23 07:00N 33°44' W 118°17'1 1.9
2017-Apr-23 06:30N 33°44' W 118°16'2 3.4
2017-Apr-23 06:00N 33°43' W 118°14'2 3.2
2017-Apr-23 05:30N 33°44' W 118°12'1 2.4
2017-Apr-23 05:00N 33°45' W 118°13'0 0.8
2017-Apr-23 04:30N 33°45' W 118°13'0 0.2
2017-Apr-23 04:01N 33°45' W 118°13'0 0.5
2017-Apr-23 03:29N 33°45' W 118°13'2 3.7
2017-Apr-23 03:00N 33°43' W 118°14'0 0.0
2017-Apr-23 02:30N 33°43' W 118°14'1 2.9
2017-Apr-23 02:00N 33°44' W 118°12'1 1.2
2017-Apr-23 01:30N 33°45' W 118°13'1 2.3
2017-Apr-23 01:00N 33°44' W 118°12'2 3.9
2017-Apr-23 00:30N 33°44' W 118°10'0 0.4
2017-Apr-23 00:00N 33°44' W 118°10'0 0.8
2017-Apr-22 23:30N 33°44' W 118°10'2 3.8
2017-Apr-22 23:00N 33°44' W 118°13'0 0.1
2017-Apr-22 22:26N 33°44' W 118°13'0 0.0
2017-Apr-22 21:44N 33°44' W 118°13'0 0.2
2017-Apr-22 21:30N 33°44' W 118°13'0 0.0
2017-Apr-22 21:00N 33°44' W 118°13'0 0.0
2017-Apr-22 20:30N 33°44' W 118°13'0 0.0
2017-Apr-22 20:00N 33°44' W 118°13'0 0.1
2017-Apr-22 19:31N 33°44' W 118°13'2 3.9
2017-Apr-22 19:00N 33°45' W 118°11'3 6.3
2017-Apr-22 18:30N 33°43' W 118°14'2 3.1
2017-Apr-22 18:00N 33°44' W 118°16'0 0.0
2017-Apr-22 17:30N 33°44' W 118°16'0 0.0
2017-Apr-22 17:00N 33°44' W 118°16'0 0.0
2017-Apr-22 16:30N 33°44' W 118°16'0 0.0
2017-Apr-22 16:00N 33°44' W 118°16'0 0.0
2017-Apr-22 15:30N 33°44' W 118°16'2 4.8
2017-Apr-22 15:00N 33°43' W 118°13'2 4.5
2017-Apr-22 14:30N 33°45' W 118°11'4 4.1
2017-Apr-22 13:30N 33°44' W 118°16'0 0.3
2017-Apr-22 13:00N 33°44' W 118°16'3 5.9
2017-Apr-22 12:31N 33°44' W 118°12'0 0.7
2017-Apr-22 12:00N 33°45' W 118°12'2 3.6
2017-Apr-22 11:30N 33°46' W 118°13'0 0.3
2017-Apr-22 11:00N 33°46' W 118°13'2 3.4
2017-Apr-22 10:30N 33°44' W 118°13'2 4.5
2017-Apr-22 10:00N 33°44' W 118°16'0 0.0
2017-Apr-22 09:30N 33°44' W 118°16'0 0.0
2017-Apr-22 09:00N 33°44' W 118°16'0 0.0
2017-Apr-22 08:30N 33°44' W 118°16'0 0.0
2017-Apr-22 08:00N 33°44' W 118°16'0 0.0
2017-Apr-22 07:30N 33°44' W 118°16'0 0.0
2017-Apr-22 07:00N 33°44' W 118°16'0 0.0
2017-Apr-22 06:30N 33°44' W 118°16'0 0.0
2017-Apr-22 06:00N 33°44' W 118°16'0 0.0
2017-Apr-22 05:30N 33°44' W 118°16'0 0.0
2017-Apr-22 05:00N 33°44' W 118°16'3 5.4
2017-Apr-22 04:30N 33°45' W 118°13'0 0.1
2017-Apr-22 04:00N 33°46' W 118°13'0 0.0
2017-Apr-22 03:30N 33°46' W 118°13'0 0.0
2017-Apr-22 02:58N 33°46' W 118°13'0 0.5
2017-Apr-22 02:30N 33°45' W 118°13'1 2.2
2017-Apr-22 02:00N 33°44' W 118°12'2 4.0
2017-Apr-22 01:30N 33°43' W 118°11'1 1.5
2017-Apr-22 01:01N 33°44' W 118°11'3 6.7
2017-Apr-22 00:30N 33°43' W 118°15'3 6.4
2017-Apr-22 00:00N 33°46' W 118°17'1 1.2
2017-Apr-21 23:30N 33°45' W 118°16'0 0.6
2017-Apr-21 23:00N 33°45' W 118°16'2 2.5
2017-Apr-21 22:24N 33°44' W 118°16'0 0.0
2017-Apr-21 22:00N 33°44' W 118°16'4 7.3
2017-Apr-21 21:30N 33°44' W 118°11'1 2.4
2017-Apr-21 21:00N 33°44' W 118°10'4 7.5
2017-Apr-21 20:30N 33°43' W 118°14'2 3.7
2017-Apr-21 20:00N 33°43' W 118°17'1 2.5
2017-Apr-21 19:30N 33°44' W 118°16'0 0.0
2017-Apr-21 19:00N 33°44' W 118°16'0 0.0
2017-Apr-21 18:09N 33°44' W 118°16'0 0.0
2017-Apr-21 17:48N 33°44' W 118°16'1 2.0
2017-Apr-21 17:29N 33°44' W 118°16'2 3.1
2017-Apr-21 16:56N 33°46' W 118°17'3 5.6
2017-Apr-21 16:25N 33°43' W 118°16'3 7.7
2017-Apr-21 16:00N 33°44' W 118°12'1 1.2
2017-Apr-21 15:29N 33°44' W 118°12'0 0.0
2017-Apr-21 15:00N 33°44' W 118°12'0 0.0
2017-Apr-21 14:19N 33°44' W 118°12'0 0.1
2017-Apr-21 13:29N 33°44' W 118°12'0 0.1
2017-Apr-21 12:58N 33°44' W 118°12'0 0.1
2017-Apr-21 12:30N 33°44' W 118°12'0 0.0
2017-Apr-21 11:43N 33°44' W 118°12'0 0.0
2017-Apr-21 11:27N 33°44' W 118°12'0 0.0
2017-Apr-21 10:58N 33°44' W 118°12'0 0.1
2017-Apr-21 10:30N 33°44' W 118°12'1 1.1
2017-Apr-21 10:00N 33°44' W 118°12'2 4.9
2017-Apr-21 09:30N 33°43' W 118°15'1 2.6
2017-Apr-21 09:00N 33°44' W 118°16'0 0.0
2017-Apr-21 08:16N 33°44' W 118°16'0 0.0
2017-Apr-21 08:00N 33°44' W 118°16'0 0.0
2017-Apr-21 07:30N 33°44' W 118°16'0 0.0
2017-Apr-21 06:58N 33°44' W 118°16'0 0.0
2017-Apr-21 06:30N 33°44' W 118°16'0 0.0
2017-Apr-21 06:00N 33°44' W 118°16'0 0.0
2017-Apr-21 05:30N 33°44' W 118°16'0 0.0
2017-Apr-21 04:56N 33°44' W 118°16'0 0.0
2017-Apr-21 04:30N 33°44' W 118°16'0 0.0
2017-Apr-21 03:57N 33°44' W 118°16'1 2.7
2017-Apr-21 03:30N 33°43' W 118°15'1 2.4
2017-Apr-21 03:00N 33°43' W 118°14'3 5.4
2017-Apr-21 02:29N 33°45' W 118°17'2 3.4
2017-Apr-21 02:00N 33°46' W 118°16'0 0.0
2017-Apr-21 01:30N 33°46' W 118°16'0 0.0
2017-Apr-21 01:00N 33°46' W 118°16'1 1.8
2017-Apr-21 00:30N 33°46' W 118°17'1 1.1
2017-Apr-21 00:00N 33°45' W 118°16'2 3.6
2017-Apr-20 23:29N 33°43' W 118°16'2 3.3
2017-Apr-20 23:00N 33°43' W 118°14'2 4.3
2017-Apr-20 22:30N 33°45' W 118°13'1 1.4
2017-Apr-20 22:00N 33°45' W 118°13'0 0.0
2017-Apr-20 21:30N 33°46' W 118°13'1 2.5
2017-Apr-20 21:00N 33°44' W 118°13'2 4.5
2017-Apr-20 20:30N 33°44' W 118°16'0 0.0
2017-Apr-20 20:00N 33°44' W 118°16'0 0.0
2017-Apr-20 19:19N 33°44' W 118°16'0 0.2
2017-Apr-20 18:59N 33°44' W 118°16'0 0.1
2017-Apr-20 18:30N 33°44' W 118°16'0 0.0
2017-Apr-20 17:59N 33°44' W 118°16'0 0.0
2017-Apr-20 17:26N 33°44' W 118°16'5 3.0
2017-Apr-20 15:37N 33°45' W 118°09'0 0.5
2017-Apr-20 15:30N 33°45' W 118°09'3 1.5
2017-Apr-20 13:42N 33°44' W 118°06'2 4.4
2017-Apr-20 13:19N 33°44' W 118°08'6 8.6
2017-Apr-20 12:40N 33°43' W 118°15'1 3.7
2017-Apr-20 12:20N 33°44' W 118°15'0 0.1
2017-Apr-20 11:57N 33°44' W 118°15'1 2.1
2017-Apr-20 11:29N 33°43' W 118°16'1 1.6
2017-Apr-20 11:00N 33°43' W 118°15'3 5.4
2017-Apr-20 10:30N 33°45' W 118°16'1 1.7
2017-Apr-20 10:00N 33°46' W 118°16'0 0.5
2017-Apr-20 09:30N 33°46' W 118°15'2 4.7
2017-Apr-20 09:00N 33°43' W 118°16'0 0.8
2017-Apr-20 08:30N 33°43' W 118°16'2 4.3
2017-Apr-20 08:00N 33°44' W 118°13'0 0.0
2017-Apr-20 07:11N 33°44' W 118°13'0 0.1
2017-Apr-20 06:56N 33°44' W 118°13'  
Track history (hours):
 
Tides and Currents Weather Stations Pressure Air Temp Water Temp Dewpoint Dewpoint Depression Visibility Wind Speed Wind Dir Waves Ship Positions

Tim Quigg

Owner: Harley Marine Services, Inc, Seattle, WA. More information available from US FCC via Universal Licensing System and Coast Guard Vessel Documentation Center.

Last reported at 2017-Apr-30 06:55 UTC. Time now 2017-Apr-30 07:11 UTC.
Position N 33°45' W 118°13'.

Type: Tug. MMSI: 366926740.

Date/timePositionNaut miles runAvg speedWind from/ knotsBaromVisibWave heightAir tempDewpointWater temp
2017-Apr-30 06:55N 33°45' W 118°13'1 3.3
2017-Apr-30 06:28N 33°46' W 118°14'3 6.4
2017-Apr-30 06:00N 33°43' W 118°14'2 3.1
2017-Apr-30 05:30N 33°44' W 118°16'0 0.0
2017-Apr-30 04:49N 33°44' W 118°16'1 3.1
2017-Apr-30 04:29N 33°43' W 118°15'2 2.1
2017-Apr-30 03:43N 33°43' W 118°13'2 8.5
2017-Apr-30 03:31N 33°43' W 118°15'1 2.3
2017-Apr-30 03:00N 33°44' W 118°16'0 0.0
2017-Apr-30 02:30N 33°44' W 118°16'0 0.0
2017-Apr-30 02:00N 33°44' W 118°16'0 0.0
2017-Apr-30 01:30N 33°44' W 118°16'0 0.4
2017-Apr-30 01:00N 33°44' W 118°16'2 4.0
2017-Apr-30 00:30N 33°46' W 118°16'0 0.5
2017-Apr-30 00:01N 33°46' W 118°16'3 3.7
2017-Apr-29 23:16N 33°43' W 118°16'3 0.3
2017-Apr-29 10:52N 33°46' W 118°13'2 1.8
2017-Apr-29 09:44N 33°44' W 118°12'3 3.5
2017-Apr-29 08:47N 33°43' W 118°15'1 4.2
2017-Apr-29 08:30N 33°44' W 118°16'0 0.0
2017-Apr-29 08:00N 33°44' W 118°16'0 0.7
2017-Apr-29 07:30N 33°43' W 118°16'2 4.6
2017-Apr-29 06:59N 33°46' W 118°16'1 2.6
2017-Apr-29 06:30N 33°45' W 118°16'1 2.2
2017-Apr-29 06:00N 33°44' W 118°16'2 4.8
2017-Apr-29 05:30N 33°45' W 118°13'1 2.5
2017-Apr-29 05:00N 33°46' W 118°13'0 0.1
2017-Apr-29 04:30N 33°46' W 118°13'2 3.1
2017-Apr-29 04:00N 33°45' W 118°13'2 4.8
2017-Apr-29 03:30N 33°44' W 118°16'0 0.0
2017-Apr-29 03:00N 33°44' W 118°16'0 0.0
2017-Apr-29 02:30N 33°44' W 118°16'0 0.0
2017-Apr-29 02:00N 33°44' W 118°16'0 0.0
2017-Apr-29 01:30N 33°44' W 118°16'1 2.0
2017-Apr-29 01:00N 33°44' W 118°17'2 3.4
2017-Apr-29 00:30N 33°46' W 118°15'0 0.4
2017-Apr-29 00:00N 33°46' W 118°16'0 0.0
2017-Apr-28 23:30N 33°46' W 118°16'1 1.8
2017-Apr-28 23:00N 33°45' W 118°16'1 1.8
2017-Apr-28 22:30N 33°44' W 118°17'2 4.4
2017-Apr-28 22:00N 33°43' W 118°15'1 2.8
2017-Apr-28 21:30N 33°44' W 118°16'0 0.0
2017-Apr-28 21:00N 33°44' W 118°16'0 0.0
2017-Apr-28 20:30N 33°44' W 118°16'0 0.0
2017-Apr-28 20:00N 33°44' W 118°16'0 0.0
2017-Apr-28 19:30N 33°44' W 118°16'0 0.0
2017-Apr-28 19:00N 33°44' W 118°16'0 0.0
2017-Apr-28 18:30N 33°44' W 118°16'0 0.0
2017-Apr-28 18:01N 33°44' W 118°16'0 0.0
2017-Apr-28 17:26N 33°44' W 118°16'0 0.1
2017-Apr-28 16:59N 33°44' W 118°16'1 1.4
2017-Apr-28 16:29N 33°44' W 118°16'0 0.0
2017-Apr-28 15:59N 33°44' W 118°16'0 0.0
2017-Apr-28 15:28N 33°44' W 118°16'0 0.2
2017-Apr-28 15:00N 33°44' W 118°17'0 0.0
2017-Apr-28 14:18N 33°44' W 118°17'2 1.3
2017-Apr-28 12:57N 33°45' W 118°16'2 3.2
2017-Apr-28 12:28N 33°44' W 118°16'1 1.1
2017-Apr-28 11:24N 33°43' W 118°16'2 2.7
2017-Apr-28 10:50N 33°44' W 118°17'1 1.1
2017-Apr-28 10:08N 33°45' W 118°16'1 5.8
2017-Apr-28 10:00N 33°44' W 118°17'1 1.7
2017-Apr-28 09:30N 33°44' W 118°16'2 4.8
2017-Apr-28 09:00N 33°44' W 118°13'1 2.2
2017-Apr-28 08:30N 33°45' W 118°13'0 0.4
2017-Apr-28 08:00N 33°46' W 118°13'0 0.0
2017-Apr-28 07:30N 33°46' W 118°13'2 4.8
2017-Apr-28 07:00N 33°43' W 118°14'2 3.1
2017-Apr-28 06:30N 33°44' W 118°16'0 0.0
2017-Apr-28 05:57N 33°44' W 118°16'0 0.0
2017-Apr-28 05:26N 33°44' W 118°16'0 0.0
2017-Apr-28 05:00N 33°44' W 118°16'0 0.0
2017-Apr-28 04:25N 33°44' W 118°16'1 3.0
2017-Apr-28 03:59N 33°43' W 118°15'1 1.9
2017-Apr-28 03:17N 33°44' W 118°13'1 3.9
2017-Apr-28 03:00N 33°43' W 118°14'1 2.8
2017-Apr-28 02:30N 33°44' W 118°16'0 0.0
2017-Apr-28 02:00N 33°44' W 118°16'0 0.0
2017-Apr-28 01:30N 33°44' W 118°16'0 0.0
2017-Apr-28 01:00N 33°44' W 118°16'0 0.0
2017-Apr-28 00:30N 33°44' W 118°16'0 0.0
2017-Apr-27 23:54N 33°44' W 118°16'1 2.3
2017-Apr-27 23:30N 33°43' W 118°16'3 3.8
2017-Apr-27 22:40N 33°45' W 118°13'1 1.0
2017-Apr-27 21:42N 33°44' W 118°12'0 0.0
2017-Apr-27 20:35N 33°45' W 118°12'0 2.4
2017-Apr-27 20:27N 33°44' W 118°12'3 6.0
2017-Apr-27 19:58N 33°44' W 118°16'0 0.0
2017-Apr-27 06:52N 33°44' W 118°16'0 0.0
2017-Apr-27 06:30N 33°44' W 118°16'0 0.0
2017-Apr-27 06:00N 33°44' W 118°16'0 0.0
2017-Apr-27 05:30N 33°44' W 118°16'0 0.0
2017-Apr-27 05:00N 33°44' W 118°16'0 0.0
2017-Apr-27 04:30N 33°44' W 118°16'2 3.7
2017-Apr-27 04:00N 33°43' W 118°13'2 2.6
2017-Apr-27 03:20N 33°45' W 118°12'1 2.0
2017-Apr-27 03:00N 33°46' W 118°13'2 3.9
2017-Apr-27 02:30N 33°44' W 118°12'1 1.9
2017-Apr-27 02:00N 33°44' W 118°10'2 3.9
2017-Apr-27 01:29N 33°45' W 118°12'0 0.8
2017-Apr-27 01:00N 33°45' W 118°13'0 0.0
2017-Apr-27 00:30N 33°45' W 118°13'0 0.0
2017-Apr-27 00:00N 33°45' W 118°13'0 0.0
2017-Apr-26 23:30N 33°45' W 118°13'0 0.0
2017-Apr-26 23:00N 33°45' W 118°13'3 6.3
2017-Apr-26 22:30N 33°44' W 118°09'3 6.6
2017-Apr-26 22:00N 33°44' W 118°06'1 2.5
2017-Apr-26 21:30N 33°44' W 118°07'4 8.8
2017-Apr-26 21:00N 33°44' W 118°12'3 5.8
2017-Apr-26 20:30N 33°44' W 118°16'0 0.0
2017-Apr-26 20:00N 33°44' W 118°16'0 0.0
2017-Apr-26 19:30N 33°44' W 118°16'0 0.0
2017-Apr-26 19:00N 33°44' W 118°16'0 0.0
2017-Apr-26 18:30N 33°44' W 118°16'0 0.0
2017-Apr-26 17:56N 33°44' W 118°16'0 0.0
2017-Apr-26 17:31N 33°44' W 118°16'3 3.3
2017-Apr-26 16:39N 33°46' W 118°13'1 3.9
2017-Apr-26 16:30N 33°45' W 118°13'0 0.1
2017-Apr-26 13:02N 33°45' W 118°12'0 0.0
2017-Apr-26 12:59N 33°45' W 118°12'0 0.0
2017-Apr-26 12:16N 33°45' W 118°12'0 0.6
2017-Apr-26 11:48N 33°45' W 118°12'1 3.8
2017-Apr-26 11:30N 33°46' W 118°13'0 0.0
2017-Apr-26 09:43N 33°46' W 118°13'2 8.7
2017-Apr-26 09:30N 33°44' W 118°14'2 4.9
2017-Apr-26 09:00N 33°46' W 118°15'1 0.4
2017-Apr-26 07:09N 33°45' W 118°16'2 7.9
2017-Apr-26 06:56N 33°43' W 118°16'1 1.2
2017-Apr-26 06:24N 33°44' W 118°16'0 0.0
2017-Apr-26 05:56N 33°44' W 118°16'0 0.0
2017-Apr-26 05:27N 33°44' W 118°16'0 0.0
2017-Apr-26 05:00N 33°44' W 118°16'0 0.0
2017-Apr-26 04:30N 33°44' W 118°16'2 0.6
2017-Apr-26 01:17N 33°46' W 118°16'0 0.0
2017-Apr-26 01:00N 33°46' W 118°16'2 4.6
2017-Apr-26 00:30N 33°44' W 118°16'2 3.2
2017-Apr-26 00:00N 33°45' W 118°16'1 1.3
2017-Apr-25 23:30N 33°46' W 118°15'0 0.2
2017-Apr-25 23:00N 33°46' W 118°16'2 3.2
2017-Apr-25 22:30N 33°44' W 118°17'1 1.5
2017-Apr-25 22:00N 33°44' W 118°16'0 0.2
2017-Apr-25 21:30N 33°44' W 118°16'0 0.9
2017-Apr-25 21:01N 33°44' W 118°15'0 0.7
2017-Apr-25 20:30N 33°44' W 118°16'1 2.5
2017-Apr-25 20:00N 33°43' W 118°15'1 2.8
2017-Apr-25 19:30N 33°44' W 118°16'0 0.0
2017-Apr-25 19:00N 33°44' W 118°16'0 0.0
2017-Apr-25 18:28N 33°44' W 118°16'0 0.0
2017-Apr-25 15:56N 33°44' W 118°16'0 0.3
2017-Apr-25 15:29N 33°44' W 118°16'2 2.6
2017-Apr-25 14:42N 33°42' W 118°14'1 5.2
2017-Apr-25 14:28N 33°43' W 118°15'3 2.6
2017-Apr-25 13:28N 33°45' W 118°16'2 3.8
2017-Apr-25 13:00N 33°44' W 118°16'0 0.1
2017-Apr-25 12:26N 33°44' W 118°16'0 0.1
2017-Apr-25 09:52N 33°44' W 118°16'3 0.5
2017-Apr-25 03:39N 33°46' W 118°13'0 2.8
2017-Apr-25 03:30N 33°46' W 118°13'3 0.1
2017-Apr-24 06:22N 33°44' W 118°16'0 0.0
2017-Apr-24 05:58N 33°44' W 118°16'0 0.0
2017-Apr-24 05:28N 33°44' W 118°16'1 0.5
2017-Apr-24 03:03N 33°43' W 118°15'3 7.8
2017-Apr-24 02:43N 33°44' W 118°12'3 6.4
2017-Apr-24 02:17N 33°44' W 118°09'1 1.4
2017-Apr-24 01:24N 33°44' W 118°10'3 7.0
2017-Apr-24 01:00N 33°43' W 118°13'3 5.6
2017-Apr-24 00:29N 33°44' W 118°17'2 3.9
2017-Apr-23 23:58N 33°46' W 118°16'0 0.4
2017-Apr-23 23:30N 33°46' W 118°16'2 4.1
2017-Apr-23 23:00N 33°44' W 118°16'1 1.1
2017-Apr-23 22:29N 33°44' W 118°16'0 0.0
2017-Apr-23 22:00N 33°44' W 118°16'0 0.0
2017-Apr-23 21:30N 33°44' W 118°16'0 0.0
2017-Apr-23 20:51N 33°44' W 118°16'0 0.1
2017-Apr-23 20:30N 33°44' W 118°16'0 0.1
2017-Apr-23 20:00N 33°44' W 118°16'0 0.0
2017-Apr-23 19:28N 33°44' W 118°16'0 0.0
2017-Apr-23 19:00N 33°44' W 118°16'0 0.0
2017-Apr-23 18:30N 33°44' W 118°16'0 0.0
2017-Apr-23 17:35N 33°44' W 118°16'0 0.0
2017-Apr-23 17:22N 33°44' W 118°16'0 0.0
2017-Apr-23 17:00N 33°44' W 118°16'0 0.0
2017-Apr-23 16:30N 33°44' W 118°16'0 0.0
2017-Apr-23 16:00N 33°44' W 118°16'0 0.0
2017-Apr-23 15:30N 33°44' W 118°16'4 7.6
2017-Apr-23 14:59N 33°44' W 118°11'1 1.3
2017-Apr-23 14:00N 33°44' W 118°12'0 0.3
2017-Apr-23 13:30N 33°44' W 118°13'1 2.4
2017-Apr-23 13:00N 33°45' W 118°13'1 1.8
2017-Apr-23 12:29N 33°45' W 118°14'1 1.6
2017-Apr-23 11:57N 33°45' W 118°13'0 0.0
2017-Apr-23 11:30N 33°45' W 118°13'0 0.0
2017-Apr-23 11:00N 33°45' W 118°13'0 0.0
2017-Apr-23 10:30N 33°45' W 118°13'0 0.0
2017-Apr-23 09:54N 33°45' W 118°13'0 0.1
2017-Apr-23 09:30N 33°45' W 118°13'1 2.7
2017-Apr-23 09:00N 33°44' W 118°12'0 0.1
2017-Apr-23 08:30N 33°44' W 118°12'3 6.1
2017-Apr-23 08:00N 33°43' W 118°16'3 5.6
2017-Apr-23 07:30N 33°46' W 118°16'2 3.0
2017-Apr-23 07:00N 33°44' W 118°17'1 1.9
2017-Apr-23 06:30N 33°44' W 118°16'2 3.4
2017-Apr-23 06:00N 33°43' W 118°14'2 3.2
2017-Apr-23 05:30N 33°44' W 118°12'1 2.4
2017-Apr-23 05:00N 33°45' W 118°13'0 0.8
2017-Apr-23 04:30N 33°45' W 118°13'0 0.2
2017-Apr-23 04:01N 33°45' W 118°13'0 0.5
2017-Apr-23 03:29N 33°45' W 118°13'2 3.7
2017-Apr-23 03:00N 33°43' W 118°14'0 0.0
2017-Apr-23 02:30N 33°43' W 118°14'1 2.9
2017-Apr-23 02:00N 33°44' W 118°12'1 1.2
2017-Apr-23 01:30N 33°45' W 118°13'1 2.3
2017-Apr-23 01:00N 33°44' W 118°12'2 3.9
2017-Apr-23 00:30N 33°44' W 118°10'0 0.4
2017-Apr-23 00:00N 33°44' W 118°10'0 0.8
2017-Apr-22 23:30N 33°44' W 118°10'2 3.8
2017-Apr-22 23:00N 33°44' W 118°13'0 0.1
2017-Apr-22 22:26N 33°44' W 118°13'0 0.0
2017-Apr-22 21:44N 33°44' W 118°13'0 0.2
2017-Apr-22 21:30N 33°44' W 118°13'0 0.0
2017-Apr-22 21:00N 33°44' W 118°13'0 0.0
2017-Apr-22 20:30N 33°44' W 118°13'0 0.0
2017-Apr-22 20:00N 33°44' W 118°13'0 0.1
2017-Apr-22 19:31N 33°44' W 118°13'2 3.9
2017-Apr-22 19:00N 33°45' W 118°11'3 6.3
2017-Apr-22 18:30N 33°43' W 118°14'2 3.1
2017-Apr-22 18:00N 33°44' W 118°16'0 0.0
2017-Apr-22 17:30N 33°44' W 118°16'0 0.0
2017-Apr-22 17:00N 33°44' W 118°16'0 0.0
2017-Apr-22 16:30N 33°44' W 118°16'0 0.0
2017-Apr-22 16:00N 33°44' W 118°16'0 0.0
2017-Apr-22 15:30N 33°44' W 118°16'2 4.8
2017-Apr-22 15:00N 33°43' W 118°13'2 4.5
2017-Apr-22 14:30N 33°45' W 118°11'4 4.1
2017-Apr-22 13:30N 33°44' W 118°16'0 0.3
2017-Apr-22 13:00N 33°44' W 118°16'3 5.9
2017-Apr-22 12:31N 33°44' W 118°12'0 0.7
2017-Apr-22 12:00N 33°45' W 118°12'2 3.6
2017-Apr-22 11:30N 33°46' W 118°13'0 0.3
2017-Apr-22 11:00N 33°46' W 118°13'2 3.4
2017-Apr-22 10:30N 33°44' W 118°13'2 4.5
2017-Apr-22 10:00N 33°44' W 118°16'0 0.0
2017-Apr-22 09:30N 33°44' W 118°16'0 0.0
2017-Apr-22 09:00N 33°44' W 118°16'0 0.0
2017-Apr-22 08:30N 33°44' W 118°16'0 0.0
2017-Apr-22 08:00N 33°44' W 118°16'0 0.0
2017-Apr-22 07:30N 33°44' W 118°16'0 0.0
2017-Apr-22 07:00N 33°44' W 118°16'0 0.0
2017-Apr-22 06:30N 33°44' W 118°16'0 0.0
2017-Apr-22 06:00N 33°44' W 118°16'0 0.0
2017-Apr-22 05:30N 33°44' W 118°16'0 0.0
2017-Apr-22 05:00N 33°44' W 118°16'3 5.4
2017-Apr-22 04:30N 33°45' W 118°13'0 0.1
2017-Apr-22 04:00N 33°46' W 118°13'0 0.0
2017-Apr-22 03:30N 33°46' W 118°13'0 0.0
2017-Apr-22 02:58N 33°46' W 118°13'0 0.5
2017-Apr-22 02:30N 33°45' W 118°13'1 2.2
2017-Apr-22 02:00N 33°44' W 118°12'2 4.0
2017-Apr-22 01:30N 33°43' W 118°11'1 1.5
2017-Apr-22 01:01N 33°44' W 118°11'3 6.7
2017-Apr-22 00:30N 33°43' W 118°15'3 6.4
2017-Apr-22 00:00N 33°46' W 118°17'1 1.2
2017-Apr-21 23:30N 33°45' W 118°16'0 0.6
2017-Apr-21 23:00N 33°45' W 118°16'2 2.5
2017-Apr-21 22:24N 33°44' W 118°16'0 0.0
2017-Apr-21 22:00N 33°44' W 118°16'4 7.3
2017-Apr-21 21:30N 33°44' W 118°11'1 2.4
2017-Apr-21 21:00N 33°44' W 118°10'4 7.5
2017-Apr-21 20:30N 33°43' W 118°14'2 3.7
2017-Apr-21 20:00N 33°43' W 118°17'1 2.5
2017-Apr-21 19:30N 33°44' W 118°16'0 0.0
2017-Apr-21 19:00N 33°44' W 118°16'0 0.0
2017-Apr-21 18:09N 33°44' W 118°16'0 0.0
2017-Apr-21 17:48N 33°44' W 118°16'1 2.0
2017-Apr-21 17:29N 33°44' W 118°16'2 3.1
2017-Apr-21 16:56N 33°46' W 118°17'3 5.6
2017-Apr-21 16:25N 33°43' W 118°16'3 7.7
2017-Apr-21 16:00N 33°44' W 118°12'1 1.2
2017-Apr-21 15:29N 33°44' W 118°12'0 0.0
2017-Apr-21 15:00N 33°44' W 118°12'0 0.0
2017-Apr-21 14:19N 33°44' W 118°12'0 0.1
2017-Apr-21 13:29N 33°44' W 118°12'0 0.1
2017-Apr-21 12:58N 33°44' W 118°12'0 0.1
2017-Apr-21 12:30N 33°44' W 118°12'0 0.0
2017-Apr-21 11:43N 33°44' W 118°12'0 0.0
2017-Apr-21 11:27N 33°44' W 118°12'0 0.0
2017-Apr-21 10:58N 33°44' W 118°12'0 0.1
2017-Apr-21 10:30N 33°44' W 118°12'1 1.1
2017-Apr-21 10:00N 33°44' W 118°12'2 4.9
2017-Apr-21 09:30N 33°43' W 118°15'1 2.6
2017-Apr-21 09:00N 33°44' W 118°16'0 0.0
2017-Apr-21 08:16N 33°44' W 118°16'0 0.0
2017-Apr-21 08:00N 33°44' W 118°16'0 0.0
2017-Apr-21 07:30N 33°44' W 118°16'0 0.0
2017-Apr-21 06:58N 33°44' W 118°16'0 0.0
2017-Apr-21 06:30N 33°44' W 118°16'0 0.0
2017-Apr-21 06:00N 33°44' W 118°16'0 0.0
2017-Apr-21 05:30N 33°44' W 118°16'0 0.0
2017-Apr-21 04:56N 33°44' W 118°16'0 0.0
2017-Apr-21 04:30N 33°44' W 118°16'0 0.0
2017-Apr-21 03:57N 33°44' W 118°16'1 2.7
2017-Apr-21 03:30N 33°43' W 118°15'1 2.4
2017-Apr-21 03:00N 33°43' W 118°14'3 5.4
2017-Apr-21 02:29N 33°45' W 118°17'2 3.4
2017-Apr-21 02:00N 33°46' W 118°16'0 0.0
2017-Apr-21 01:30N 33°46' W 118°16'0 0.0
2017-Apr-21 01:00N 33°46' W 118°16'1 1.8
2017-Apr-21 00:30N 33°46' W 118°17'1 1.1
2017-Apr-21 00:00N 33°45' W 118°16'2 3.6
2017-Apr-20 23:29N 33°43' W 118°16'2 3.3
2017-Apr-20 23:00N 33°43' W 118°14'2 4.3
2017-Apr-20 22:30N 33°45' W 118°13'1 1.4
2017-Apr-20 22:00N 33°45' W 118°13'0 0.0
2017-Apr-20 21:30N 33°46' W 118°13'1 2.5
2017-Apr-20 21:00N 33°44' W 118°13'2 4.5
2017-Apr-20 20:30N 33°44' W 118°16'0 0.0
2017-Apr-20 20:00N 33°44' W 118°16'0 0.0
2017-Apr-20 19:19N 33°44' W 118°16'0 0.2
2017-Apr-20 18:59N 33°44' W 118°16'0 0.1
2017-Apr-20 18:30N 33°44' W 118°16'0 0.0
2017-Apr-20 17:59N 33°44' W 118°16'0 0.0
2017-Apr-20 17:26N 33°44' W 118°16'5 3.0
2017-Apr-20 15:37N 33°45' W 118°09'0 0.5
2017-Apr-20 15:30N 33°45' W 118°09'3 1.5
2017-Apr-20 13:42N 33°44' W 118°06'2 4.4
2017-Apr-20 13:19N 33°44' W 118°08'6 8.6
2017-Apr-20 12:40N 33°43' W 118°15'1 3.7
2017-Apr-20 12:20N 33°44' W 118°15'0 0.1
2017-Apr-20 11:57N 33°44' W 118°15'1 2.1
2017-Apr-20 11:29N 33°43' W 118°16'1 1.6
2017-Apr-20 11:00N 33°43' W 118°15'3 5.4
2017-Apr-20 10:30N 33°45' W 118°16'1 1.7
2017-Apr-20 10:00N 33°46' W 118°16'0 0.5
2017-Apr-20 09:30N 33°46' W 118°15'2 4.7
2017-Apr-20 09:00N 33°43' W 118°16'0 0.8
2017-Apr-20 08:30N 33°43' W 118°16'2 4.3
2017-Apr-20 08:00N 33°44' W 118°13'0 0.0
2017-Apr-20 07:11N 33°44' W 118°13'0 0.1
2017-Apr-20 06:56N 33°44' W 118°13'  

Dump ship's entire track history